Time;durP1;ratioP1;P1;durP2;ratioP2;P2;SDS_P1;SDS_P2;PMS_P1;PMS_P2;Temp;Humidity;BMP_temperature;BMP_pressure;BME280_temperature;BME280_humidity;BME280_pressure;Samples;Min_cycle;Max_cycle;Signal;HPM_P1;HPM_P2
2022/05/23 00:01:56;;;;;;;7.93;2.55;;;13.30;99.90;;;;;;4993472;28;20035;-89
2022/05/23 00:04:21;;;;;;;6.65;2.40;;;13.30;99.90;;;;;;4984859;28;20042;-89
2022/05/23 00:06:49;;;;;;;7.95;2.30;;;13.30;99.90;;;;;;4943954;28;20038;-89
2022/05/23 00:09:15;;;;;;;7.45;2.30;;;13.30;99.90;;;;;;4972378;28;20050;-89
2022/05/23 00:11:40;;;;;;;6.72;2.33;;;13.30;99.90;;;;;;4992992;28;20031;-89
2022/05/23 00:14:06;;;;;;;7.05;2.45;;;13.20;99.90;;;;;;4995309;28;20124;-88
2022/05/23 00:16:43;;;;;;;7.38;2.50;;;13.20;99.90;;;;;;5013254;28;20026;-89
2022/05/23 00:19:10;;;;;;;6.13;2.22;;;13.20;99.90;;;;;;4997668;28;20100;-89
2022/05/23 00:21:40;;;;;;;7.97;2.45;;;13.10;99.90;;;;;;5014441;28;20088;-88
2022/05/23 00:24:08;;;;;;;6.25;2.42;;;13.00;99.90;;;;;;5013419;28;20029;-88
2022/05/23 00:26:34;;;;;;;7.88;2.58;;;13.00;99.90;;;;;;5014861;28;20046;-89
2022/05/23 00:29:00;;;;;;;8.43;2.55;;;13.00;99.90;;;;;;4998081;28;20084;-89
2022/05/23 00:31:25;;;;;;;8.02;2.65;;;12.90;99.90;;;;;;5015570;28;20034;-89
2022/05/23 00:36:35;;;;;;;8.18;2.75;;;12.90;99.90;;;;;;5007679;28;20026;-89
2022/05/23 00:39:02;;;;;;;7.50;2.75;;;12.90;99.90;;;;;;4995568;28;20043;-89
2022/05/23 00:44:29;;;;;;;6.75;2.70;;;12.70;99.90;;;;;;4988488;28;20038;-89
2022/05/23 00:47:15;;;;;;;10.77;2.97;;;12.70;99.90;;;;;;4990104;28;20435;-89
2022/05/23 00:49:41;;;;;;;7.53;2.60;;;12.70;99.90;;;;;;4992005;28;20383;-88
2022/05/23 00:52:11;;;;;;;10.10;2.85;;;12.60;99.90;;;;;;4992588;28;20045;-89
2022/05/23 00:54:45;;;;;;;6.95;2.67;;;12.60;99.90;;;;;;4973271;28;20097;-89
2022/05/23 00:57:18;;;;;;;7.57;2.70;;;12.60;99.90;;;;;;4990395;28;20057;-89
2022/05/23 00:59:44;;;;;;;9.50;3.30;;;12.50;99.90;;;;;;4971928;28;20045;-89
2022/05/23 01:02:13;;;;;;;8.23;3.22;;;12.60;99.90;;;;;;4973434;28;20038;-89
2022/05/23 01:04:39;;;;;;;10.85;3.40;;;12.50;99.90;;;;;;4974455;28;20057;-89
2022/05/23 01:07:05;;;;;;;8.82;3.30;;;12.40;99.90;;;;;;4959502;28;20034;-89
2022/05/23 01:09:32;;;;;;;8.63;3.55;;;12.40;99.90;;;;;;4990101;28;20045;-89
2022/05/23 01:11:59;;;;;;;8.02;3.05;;;12.40;99.90;;;;;;4960944;28;20041;-89
2022/05/23 01:14:26;;;;;;;8.77;3.38;;;12.40;99.90;;;;;;4943377;28;20156;-89
2022/05/23 01:16:52;;;;;;;8.02;3.42;;;12.30;99.90;;;;;;4989918;28;20050;-89
2022/05/23 01:19:18;;;;;;;9.75;3.30;;;12.30;99.90;;;;;;4969530;28;20052;-89
2022/05/23 01:21:52;;;;;;;8.65;3.40;;;13.00;99.90;;;;;;4971527;28;20033;-89
2022/05/23 01:24:26;;;;;;;9.85;3.33;;;12.30;99.90;;;;;;4984661;28;20042;-89
2022/05/23 01:26:55;;;;;;;9.45;3.40;;;12.20;99.90;;;;;;4990830;28;20124;-89
2022/05/23 01:29:21;;;;;;;9.68;3.40;;;12.10;99.90;;;;;;4991634;28;20088;-89
2022/05/23 01:31:46;;;;;;;9.52;3.60;;;12.10;99.90;;;;;;4968791;28;20045;-89
2022/05/23 01:34:12;;;;;;;9.90;3.50;;;12.10;99.90;;;;;;4995293;28;20046;-89
2022/05/23 01:36:38;;;;;;;8.93;3.53;;;12.10;99.90;;;;;;5011302;28;20041;-88
2022/05/23 01:39:03;;;;;;;9.77;3.33;;;12.00;99.90;;;;;;4996567;28;20042;-88
2022/05/23 01:41:29;;;;;;;9.20;3.50;;;12.00;99.90;;;;;;5008204;28;20022;-88
2022/05/23 01:43:55;;;;;;;9.25;3.90;;;12.30;99.90;;;;;;5017072;28;20022;-88
2022/05/23 01:46:21;;;;;;;9.10;3.78;;;11.90;99.90;;;;;;4996139;28;20036;-89
2022/05/23 01:48:47;;;;;;;9.50;3.67;;;12.00;99.90;;;;;;4977693;28;20038;-88
2022/05/23 01:51:13;;;;;;;9.18;4.28;;;11.90;99.90;;;;;;4976781;28;20138;-89
2022/05/23 01:53:39;;;;;;;10.35;3.78;;;11.90;99.90;;;;;;4994216;28;20030;-89
2022/05/23 01:56:05;;;;;;;10.95;4.05;;;11.80;99.90;;;;;;4977696;28;20068;-89
2022/05/23 02:01:17;;;;;;;9.38;3.95;;;11.80;99.90;;;;;;4992028;28;20042;-88
2022/05/23 02:03:44;;;;;;;8.95;3.47;;;11.80;99.90;;;;;;4994082;28;20069;-89
2022/05/23 02:06:11;;;;;;;9.48;3.78;;;11.90;99.90;;;;;;4992048;28;20088;-88
2022/05/23 02:08:36;;;;;;;12.48;3.70;;;11.80;99.90;;;;;;4993827;28;20034;-90
2022/05/23 02:11:05;;;;;;;8.77;3.70;;;11.80;99.90;;;;;;4977878;28;20172;-89
2022/05/23 02:13:37;;;;;;;9.95;3.53;;;11.80;99.90;;;;;;4977677;28;20044;-89
2022/05/23 02:16:03;;;;;;;8.52;3.60;;;11.90;99.90;;;;;;4993217;28;20034;-89
2022/05/23 02:18:30;;;;;;;9.43;3.65;;;11.90;99.90;;;;;;4994643;28;20101;-89
2022/05/23 02:20:56;;;;;;;10.13;3.58;;;11.90;99.90;;;;;;4974123;28;20494;-89
2022/05/23 02:23:22;;;;;;;9.05;3.50;;;10.80;99.90;;;;;;4961049;28;20837;-88
2022/05/23 02:25:48;;;;;;;12.75;3.80;;;11.90;99.90;;;;;;4992364;28;20098;-89
2022/05/23 02:28:14;;;;;;;9.63;3.35;;;12.00;99.90;;;;;;4976660;28;20116;-90
2022/05/23 02:30:40;;;;;;;9.23;3.20;;;12.00;99.90;;;;;;4992379;28;20062;-89
2022/05/23 02:33:05;;;;;;;11.23;3.17;;;12.00;99.90;;;;;;4964632;28;20404;-89
2022/05/23 02:35:32;;;;;;;8.77;3.35;;;12.00;99.90;;;;;;4992292;28;20034;-89
2022/05/23 02:37:57;;;;;;;9.52;3.30;;;12.10;99.90;;;;;;4993893;28;20041;-89
2022/05/23 02:40:23;;;;;;;8.52;3.25;;;12.00;99.90;;;;;;4951053;28;20041;-88
2022/05/23 02:42:50;;;;;;;8.27;3.22;;;12.00;99.90;;;;;;4976463;28;20069;-89
2022/05/23 02:45:16;;;;;;;9.48;3.30;;;12.00;99.90;;;;;;4993728;28;20046;-89
2022/05/23 02:47:43;;;;;;;8.07;3.10;;;12.10;99.90;;;;;;4994514;28;20046;-89
2022/05/23 02:50:09;;;;;;;9.52;3.28;;;12.10;99.90;;;;;;4974366;28;20076;-87
2022/05/23 02:52:36;;;;;;;11.98;3.67;;;12.10;99.90;;;;;;4977655;28;20125;-89
2022/05/23 02:55:02;;;;;;;9.98;3.13;;;12.10;99.90;;;;;;4992784;28;20045;-89
2022/05/23 02:57:28;;;;;;;7.60;2.90;;;12.10;99.90;;;;;;4992681;28;20041;-89
2022/05/23 02:59:54;;;;;;;7.97;3.08;;;12.20;99.90;;;;;;4973619;28;20481;-88
2022/05/23 03:05:04;;;;;;;9.57;3.20;;;12.20;99.90;;;;;;4992178;28;20533;-88
2022/05/23 03:07:30;;;;;;;7.72;2.95;;;12.20;99.90;;;;;;4957761;28;20411;-88
2022/05/23 03:09:58;;;;;;;10.65;3.28;;;12.10;99.90;;;;;;4965426;28;20038;-89
2022/05/23 03:12:26;;;;;;;9.50;3.00;;;12.20;99.90;;;;;;4961440;28;20088;-88
2022/05/23 03:14:52;;;;;;;8.65;3.13;;;12.20;99.90;;;;;;4969595;28;20041;-89
2022/05/23 03:17:18;;;;;;;8.32;3.38;;;12.20;99.90;;;;;;4975429;28;20392;-89
2022/05/23 03:19:43;;;;;;;8.60;3.22;;;12.20;99.90;;;;;;4952873;28;20048;-89
2022/05/23 03:27:39;;;;;;;8.57;2.90;;;12.20;99.90;;;;;;4967959;28;20056;-89
2022/05/23 03:30:07;;;;;;;9.25;3.05;;;12.30;99.90;;;;;;4971066;28;20440;-88
2022/05/23 03:32:34;;;;;;;9.15;3.15;;;12.30;99.90;;;;;;4962105;28;20042;-89
2022/05/23 03:35:00;;;;;;;9.05;3.20;;;12.30;99.90;;;;;;4955908;28;20076;-88
2022/05/23 03:37:26;;;;;;;10.18;3.47;;;12.30;99.90;;;;;;4994629;28;20038;-89
2022/05/23 03:39:51;;;;;;;9.13;3.20;;;12.30;99.90;;;;;;4971903;28;20132;-89
2022/05/23 03:42:17;;;;;;;10.70;3.25;;;12.30;99.90;;;;;;4955157;28;20462;-88
2022/05/23 03:44:43;;;;;;;9.25;3.22;;;12.50;99.90;;;;;;4956031;28;20133;-88
2022/05/23 03:47:10;;;;;;;9.63;3.30;;;12.50;99.90;;;;;;4969758;28;20060;-89
2022/05/23 03:49:35;;;;;;;9.27;3.20;;;12.40;99.90;;;;;;4986413;28;20038;-89
2022/05/23 03:52:01;;;;;;;6.80;2.90;;;12.40;99.90;;;;;;4955540;28;20038;-89
2022/05/23 03:54:27;;;;;;;8.27;3.20;;;12.40;99.90;;;;;;4955079;28;20049;-89
2022/05/23 03:57:01;;;;;;;8.10;3.13;;;12.40;99.90;;;;;;4968689;28;20041;-88
2022/05/23 03:59:28;;;;;;;8.95;2.70;;;12.50;99.90;;;;;;4968277;28;20046;-89
2022/05/23 04:01:56;;;;;;;6.93;2.72;;;12.50;99.90;;;;;;4964372;28;20105;-89
2022/05/23 04:04:26;;;;;;;8.70;3.13;;;12.50;99.90;;;;;;4969095;28;20035;-90
2022/05/23 04:06:52;;;;;;;8.70;3.08;;;12.60;99.90;;;;;;4972684;28;20042;-89
2022/05/23 04:09:18;;;;;;;9.40;3.13;;;12.60;99.90;;;;;;4953611;28;20042;-89
2022/05/23 04:11:44;;;;;;;8.25;2.80;;;12.60;99.90;;;;;;4972236;28;20030;-88
2022/05/23 04:14:10;;;;;;;8.50;3.00;;;12.60;99.90;;;;;;4970100;28;20093;-89
2022/05/23 04:16:36;;;;;;;7.88;2.80;;;12.70;99.90;;;;;;4993317;28;20050;-89
2022/05/23 04:19:08;;;;;;;9.30;3.00;;;12.70;99.90;;;;;;4971229;28;20038;-89
2022/05/23 04:21:34;;;;;;;9.18;2.97;;;12.70;99.90;;;;;;4957407;28;20038;-89
2022/05/23 04:23:59;;;;;;;9.63;3.35;;;12.70;99.90;;;;;;4937533;28;20085;-88
2022/05/23 04:26:25;;;;;;;10.45;2.90;;;12.70;99.90;;;;;;4961715;28;20130;-88
2022/05/23 04:28:51;;;;;;;9.45;3.15;;;12.50;99.90;;;;;;4984730;28;20429;-89
2022/05/23 04:31:18;;;;;;;8.63;3.08;;;12.70;99.90;;;;;;4956758;28;20084;-89
2022/05/23 04:36:30;;;;;;;9.25;2.78;;;12.70;99.90;;;;;;4987604;28;20038;-90
2022/05/23 04:38:55;;;;;;;9.02;3.28;;;12.80;99.90;;;;;;4986487;28;20045;-89
2022/05/23 04:41:21;;;;;;;9.43;3.58;;;12.80;99.90;;;;;;4961894;28;20038;-88
2022/05/23 04:43:47;;;;;;;9.93;3.20;;;12.90;99.90;;;;;;4984840;28;20042;-88
2022/05/23 04:46:12;;;;;;;7.90;2.95;;;13.00;99.90;;;;;;4973252;28;20037;-89
2022/05/23 04:51:22;;;;;;;8.55;2.90;;;13.00;99.90;;;;;;4962085;28;20057;-88
2022/05/23 04:53:53;;;;;;;10.40;3.22;;;13.00;99.90;;;;;;4953871;28;20038;-89
2022/05/23 04:56:20;;;;;;;7.25;2.97;;;13.00;99.90;;;;;;4986703;28;20038;-90
2022/05/23 04:58:46;;;;;;;8.48;3.05;;;13.00;99.90;;;;;;4985201;28;20350;-87
2022/05/23 05:01:12;;;;;;;9.07;3.35;;;13.00;99.90;;;;;;4970257;28;20050;-89
2022/05/23 05:03:37;;;;;;;8.88;3.08;;;13.00;99.90;;;;;;4951321;28;21492;-88
2022/05/23 05:06:03;;;;;;;8.13;2.97;;;13.00;99.90;;;;;;4967823;28;20069;-88
2022/05/23 05:08:30;;;;;;;9.73;3.47;;;13.00;99.90;;;;;;4955099;28;20038;-88
2022/05/23 05:10:57;;;;;;;9.10;3.22;;;13.00;99.90;;;;;;4950579;28;20042;-87
2022/05/23 05:13:24;;;;;;;10.88;3.85;;;13.00;99.90;;;;;;4970277;28;20373;-88
2022/05/23 05:15:50;;;;;;;9.10;3.47;;;13.10;99.90;;;;;;4956701;28;20129;-89
2022/05/23 05:18:16;;;;;;;8.90;3.40;;;13.10;99.90;;;;;;4986348;28;20582;-88
2022/05/23 05:20:42;;;;;;;9.60;3.47;;;13.10;99.90;;;;;;4969044;28;20038;-88
2022/05/23 05:23:07;;;;;;;9.00;3.50;;;13.30;99.90;;;;;;4987526;28;20038;-88
2022/05/23 05:25:33;;;;;;;8.98;3.42;;;13.40;99.90;;;;;;4938771;28;20142;-89
2022/05/23 05:27:59;;;;;;;9.95;3.85;;;13.50;99.90;;;;;;4936291;28;20039;-89
2022/05/23 05:30:25;;;;;;;12.57;3.85;;;13.70;99.90;;;;;;4936857;28;21505;-89
2022/05/23 05:33:08;;;;;;;10.10;3.78;;;13.80;99.90;;;;;;4941638;28;20034;-90
2022/05/23 05:35:38;;;;;;;8.15;3.80;;;13.90;99.90;;;;;;4980129;28;20034;-89
2022/05/23 05:38:15;;;;;;;9.80;3.92;;;14.00;99.90;;;;;;4986157;28;20045;-89
2022/05/23 05:40:44;;;;;;;10.20;3.80;;;14.10;99.90;;;;;;4985825;28;20042;-89
2022/05/23 05:43:15;;;;;;;9.35;4.40;;;14.20;99.90;;;;;;4971171;28;20049;-90
2022/05/23 05:45:55;;;;;;;8.68;4.05;;;14.30;99.90;;;;;;4989887;28;20050;-89
2022/05/23 05:48:20;;;;;;;10.07;3.53;;;14.30;99.90;;;;;;4986162;28;20043;-90
2022/05/23 05:50:48;;;;;;;9.32;4.07;;;14.30;99.90;;;;;;4947969;28;20488;-89
2022/05/23 05:53:21;;;;;;;9.40;4.20;;;14.40;99.90;;;;;;4985317;28;20043;-88
2022/05/23 05:55:47;;;;;;;10.85;4.28;;;14.50;99.90;;;;;;4988817;28;20034;-89
2022/05/23 05:58:13;;;;;;;8.95;4.00;;;14.50;99.90;;;;;;4968739;28;20046;-89
2022/05/23 06:00:39;;;;;;;9.77;3.67;;;14.60;99.90;;;;;;4965230;28;20034;-89
2022/05/23 06:03:05;;;;;;;8.55;3.72;;;14.60;99.90;;;;;;4974306;28;20045;-89
2022/05/23 06:11:23;;;;;;;10.95;4.45;;;14.80;99.90;;;;;;4969391;28;20551;-87
2022/05/23 06:11:23;;;;;;;10.45;4.60;;;15.10;99.90;;;;;;4952232;28;20408;-91
2022/05/23 06:13:49;;;;;;;12.40;4.88;;;15.30;99.90;;;;;;4983338;28;20103;-88
2022/05/23 06:16:16;;;;;;;10.70;4.60;;;15.50;99.90;;;;;;4992347;28;20049;-87
2022/05/23 06:19:07;;;;;;;14.18;5.35;;;15.60;99.90;;;;;;5013376;28;20046;-87
2022/05/23 06:21:33;;;;;;;11.65;4.85;;;15.60;99.90;;;;;;4973073;28;20077;-88
2022/05/23 06:23:59;;;;;;;11.65;4.85;;;15.60;99.90;;;;;;4988635;28;20073;-88
2022/05/23 06:26:26;;;;;;;9.13;4.35;;;15.70;99.90;;;;;;4980529;28;20482;-88
2022/05/23 06:28:52;;;;;;;10.88;4.88;;;15.80;99.90;;;;;;4979705;28;20379;-88
2022/05/23 06:31:19;;;;;;;11.93;4.78;;;15.90;99.90;;;;;;4993906;28;20042;-89
2022/05/23 06:33:46;;;;;;;9.90;4.60;;;15.90;99.90;;;;;;4996421;28;20037;-89
2022/05/23 06:36:12;;;;;;;11.40;4.78;;;16.00;99.90;;;;;;4964756;28;20061;-87
2022/05/23 06:38:39;;;;;;;10.43;4.43;;;16.10;99.90;;;;;;4964668;28;20266;-88
2022/05/23 06:41:07;;;;;;;9.98;4.80;;;16.10;99.90;;;;;;4976593;28;20515;-88
2022/05/23 06:43:34;;;;;;;13.63;5.00;;;16.30;99.90;;;;;;4992616;28;20049;-88
2022/05/23 06:46:02;;;;;;;9.88;5.22;;;16.30;99.90;;;;;;4973274;28;20077;-88
2022/05/23 06:48:29;;;;;;;10.88;5.30;;;16.50;99.90;;;;;;4993207;28;20053;-88
2022/05/23 06:50:55;;;;;;;9.80;4.82;;;16.60;99.90;;;;;;4975356;28;20097;-87
2022/05/23 06:53:22;;;;;;;11.50;5.18;;;16.70;99.90;;;;;;4988892;28;20152;-90
2022/05/23 06:55:49;;;;;;;11.15;4.90;;;16.80;99.90;;;;;;4995519;28;20041;-88
2022/05/23 06:58:17;;;;;;;13.05;5.55;;;16.80;99.90;;;;;;4967486;28;20046;-88
2022/05/23 07:00:43;;;;;;;12.80;4.90;;;16.80;99.90;;;;;;4994983;28;20127;-91
2022/05/23 07:03:09;;;;;;;11.20;5.05;;;16.80;99.90;;;;;;4967813;28;20041;-88
2022/05/23 07:13:55;;;;;;;11.10;4.57;;;17.00;99.90;;;;;;4995760;28;20487;-88
2022/05/23 07:16:22;;;;;;;10.68;5.18;;;17.10;99.90;;;;;;4961711;28;20037;-91
2022/05/23 07:18:48;;;;;;;13.07;5.32;;;17.10;99.90;;;;;;4974761;28;20099;-89
2022/05/23 07:21:15;;;;;;;11.52;5.50;;;17.30;99.90;;;;;;4974272;28;20445;-90
2022/05/23 07:23:41;;;;;;;10.73;5.07;;;17.30;99.90;;;;;;4992216;28;20061;-90
2022/05/23 07:26:10;;;;;;;10.52;4.63;;;17.40;99.90;;;;;;4963544;28;20045;-93
2022/05/23 07:28:36;;;;;;;10.15;4.78;;;17.40;99.90;;;;;;4978902;28;20045;-92
2022/05/23 07:31:03;;;;;;;13.70;5.80;;;17.50;99.90;;;;;;4960870;28;20053;-89
2022/05/23 07:33:30;;;;;;;12.75;5.32;;;17.60;99.90;;;;;;4991515;28;20466;-91
2022/05/23 07:36:22;;;;;;;10.73;4.97;;;17.80;99.90;;;;;;4994996;28;20038;-90
2022/05/23 07:38:48;;;;;;;12.80;5.20;;;18.00;99.90;;;;;;5010013;28;20046;-90
2022/05/23 07:41:14;;;;;;;13.57;4.90;;;;;;;;;;4995872;28;20037;-92
2022/05/23 07:43:41;;;;;;;13.02;5.28;;;18.30;99.90;;;;;;4989365;28;20100;-92
2022/05/23 07:46:13;;;;;;;11.55;4.72;;;18.30;99.90;;;;;;4973266;28;20116;-91
2022/05/23 07:48:42;;;;;;;12.67;5.40;;;18.40;99.90;;;;;;4977094;28;20034;-90
2022/05/23 07:51:10;;;;;;;11.95;5.25;;;18.50;99.90;;;;;;4975750;28;20273;-90
2022/05/23 08:01:50;;;;;;;10.70;4.10;;;18.80;99.90;;;;;;4965187;28;20053;-90
2022/05/23 08:04:17;;;;;;;10.02;4.28;;;18.80;99.90;;;;;;4992070;28;20087;-90
2022/05/23 08:06:43;;;;;;;10.73;4.65;;;18.80;99.90;;;;;;4992370;28;20414;-91
2022/05/23 08:09:21;;;;;;;11.55;4.70;;;18.90;99.90;;;;;;4994243;28;20123;-89
2022/05/23 08:11:50;;;;;;;11.75;4.60;;;18.50;99.90;;;;;;4974732;28;20034;-91
2022/05/23 08:14:19;;;;;;;11.35;4.70;;;19.10;99.90;;;;;;4975139;28;20063;-88
2022/05/23 08:16:45;;;;;;;11.15;4.50;;;19.30;99.90;;;;;;4974777;28;20483;-90
2022/05/23 08:19:18;;;;;;;11.05;4.75;;;19.50;99.90;;;;;;4957019;28;20053;-87
2022/05/23 08:21:51;;;;;;;10.90;4.38;;;19.60;99.90;;;;;;4970474;28;20466;-88
2022/05/23 08:24:17;;;;;;;11.93;4.57;;;19.40;99.90;;;;;;4986716;28;20495;-90
2022/05/23 08:26:43;;;;;;;13.07;5.10;;;20.00;99.90;;;;;;4995219;28;20038;-86
2022/05/23 08:29:09;;;;;;;12.35;5.13;;;20.00;99.90;;;;;;4960282;28;20046;-92
2022/05/23 08:31:36;;;;;;;11.57;4.55;;;20.10;99.90;;;;;;4963052;28;20026;-89
2022/05/23 08:34:06;;;;;;;11.00;4.03;;;20.20;99.90;;;;;;4974377;28;21428;-87
2022/05/23 08:36:32;;;;;;;10.13;4.15;;;20.40;99.90;;;;;;4963569;28;20054;-88
2022/05/23 08:39:04;;;;;;;11.05;4.85;;;20.50;99.90;;;;;;4973897;28;20044;-90
2022/05/23 08:41:34;;;;;;;9.52;4.28;;;20.50;99.90;;;;;;4974147;28;20081;-91
2022/05/23 08:44:24;;;;;;;12.80;5.07;;;20.50;99.90;;;;;;4991669;28;20040;-89
2022/05/23 08:47:15;;;;;;;10.35;4.40;;;20.60;99.90;;;;;;4995920;28;20049;-91
2022/05/23 08:50:08;;;;;;;11.02;4.47;;;20.60;99.90;;;;;;4997912;28;20099;-89
2022/05/23 08:52:45;;;;;;;11.60;4.53;;;20.60;99.90;;;;;;4963662;28;20041;-89
2022/05/23 08:55:27;;;;;;;11.18;4.60;;;20.70;99.90;;;;;;5007111;28;20069;-88
2022/05/23 08:58:03;;;;;;;11.15;4.32;;;20.70;99.90;;;;;;5006224;28;20049;-89
2022/05/23 09:00:39;;;;;;;11.18;4.63;;;20.70;99.90;;;;;;4975692;28;20070;-90
2022/05/23 09:03:09;;;;;;;11.57;4.28;;;20.80;99.90;;;;;;4974376;28;20048;-94
2022/05/23 09:05:43;;;;;;;11.63;4.55;;;20.80;99.90;;;;;;5004835;28;20514;-93
2022/05/23 09:08:16;;;;;;;11.48;4.15;;;20.80;99.90;;;;;;4990027;28;20041;-93
2022/05/23 09:10:55;;;;;;;11.75;4.20;;;20.90;99.90;;;;;;4991013;28;20091;-93
2022/05/23 09:13:23;;;;;;;9.55;4.20;;;21.00;99.90;;;;;;4992854;28;20088;-92
2022/05/23 09:16:15;;;;;;;11.98;4.47;;;21.20;99.90;;;;;;4993010;28;20084;-93
2022/05/23 09:19:10;;;;;;;11.40;4.20;;;21.40;99.90;;;;;;4992373;28;20137;-87
2022/05/23 09:22:29;;;;;;;11.00;4.05;;;21.90;99.90;;;;;;5003628;28;20042;-90
2022/05/23 09:25:00;;;;;;;12.32;3.95;;;22.10;99.90;;;;;;4962231;28;20037;-90
2022/05/23 09:28:13;;;;;;;9.23;3.80;;;22.10;99.90;;;;;;4979666;28;20042;-90
2022/05/23 09:30:54;;;;;;;;;;;;;;;;;;;;;
2022/05/23 09:36:57;;;;;;;9.07;3.45;;;22.50;99.90;;;;;;4972632;28;20045;-89
2022/05/23 09:39:50;;;;;;;9.82;3.63;;;22.60;99.90;;;;;;4991324;28;20148;-91
2022/05/23 09:48:26;;;;;;;9.27;3.10;;;22.90;99.90;;;;;;4981230;28;20057;-90
2022/05/23 09:51:10;;;;;;;10.23;3.42;;;23.10;99.90;;;;;;4974485;28;20465;-90
2022/05/23 09:54:13;;;;;;;9.43;3.03;;;23.20;99.90;;;;;;4979230;28;20561;-86
2022/05/23 09:57:20;;;;;;;8.93;3.10;;;23.30;99.90;;;;;;4968540;28;20034;-88
2022/05/23 09:59:55;;;;;;;9.48;2.88;;;23.30;99.90;;;;;;4997835;28;20035;-91
2022/05/23 10:02:47;;;;;;;9.20;3.22;;;23.20;99.90;;;;;;4973629;28;20396;-88
2022/05/23 10:05:30;;;;;;;12.32;3.95;;;23.20;99.90;;;;;;4972482;28;20490;-88
2022/05/23 10:08:24;;;;;;;10.65;3.10;;;23.20;99.90;;;;;;4974840;28;20347;-91
2022/05/23 10:10:58;;;;;;;7.88;2.95;;;22.80;99.90;;;;;;4968207;28;20046;-88
2022/05/23 10:13:30;;;;;;;8.93;3.50;;;23.30;99.90;;;;;;4976208;28;20204;-87
2022/05/23 10:16:03;;;;;;;8.40;3.40;;;23.30;99.90;;;;;;4976057;28;20376;-87
2022/05/23 10:18:30;;;;;;;8.70;3.40;;;23.20;99.90;;;;;;4975484;28;20045;-87
2022/05/23 10:21:00;;;;;;;9.68;3.90;;;23.30;99.90;;;;;;4989697;28;20121;-89
2022/05/23 10:23:33;;;;;;;11.38;3.40;;;23.30;99.90;;;;;;4990592;28;20169;-92
2022/05/23 10:26:17;;;;;;;9.05;2.63;;;23.30;99.90;;;;;;4970474;28;20050;-93
2022/05/23 10:29:03;;;;;;;9.30;3.05;;;23.40;99.90;;;;;;4995127;28;20272;-88
2022/05/23 10:31:34;;;;;;;8.65;2.20;;;23.00;99.90;;;;;;4967240;28;20034;-89
2022/05/23 10:34:37;;;;;;;9.75;2.85;;;23.30;99.90;;;;;;4985795;28;20092;-93
2022/05/23 10:37:15;;;;;;;7.32;2.50;;;23.70;99.90;;;;;;4940426;28;20051;-91
2022/05/23 10:43:12;;;;;;;;;;;;;;;;;;;;;
2022/05/23 10:46:01;;;;;;;7.10;2.53;;;23.30;99.90;;;;;;5012100;28;20033;-92
2022/05/23 10:48:56;;;;;;;8.30;2.42;;;23.40;99.90;;;;;;4977819;28;20053;-92
2022/05/23 10:51:31;;;;;;;9.35;2.88;;;23.60;99.90;;;;;;4975493;28;20033;-92
2022/05/23 10:54:32;;;;;;;9.85;3.10;;;23.80;99.90;;;;;;4970565;28;20038;-93
2022/05/23 10:57:26;;;;;;;7.65;2.67;;;24.00;99.90;;;;;;4966611;28;20133;-90
2022/05/23 11:00:22;;;;;;;9.30;2.50;;;24.10;99.90;;;;;;4990087;28;20415;-93
2022/05/23 11:03:14;;;;;;;8.70;2.85;;;24.20;99.90;;;;;;4972754;28;20050;-92
2022/05/23 11:06:37;;;;;;;10.38;3.10;;;24.30;99.90;;;;;;4991868;28;20056;-88
2022/05/23 11:09:18;;;;;;;10.18;2.58;;;24.30;99.90;;;;;;4993598;28;20686;-88
2022/05/23 11:11:58;;;;;;;7.53;2.58;;;24.30;99.90;;;;;;4978015;28;20034;-89
2022/05/23 11:14:57;;;;;;;9.80;3.20;;;24.40;99.90;;;;;;4989838;28;20142;-91
2022/05/23 11:17:45;;;;;;;8.23;2.38;;;24.60;99.90;;;;;;4972528;28;20054;-93
2022/05/23 11:20:32;;;;;;;8.38;2.42;;;24.90;99.90;;;;;;4973316;28;20507;-91
2022/05/23 11:23:27;;;;;;;6.97;2.33;;;24.90;99.90;;;;;;4972947;28;20046;-89
2022/05/23 11:26:04;;;;;;;7.05;2.20;;;25.10;99.90;;;;;;4970031;28;20050;-92
2022/05/23 11:35:28;;;;;;;7.60;2.30;;;25.20;99.90;;;;;;4987887;28;20078;-90
2022/05/23 11:38:01;;;;;;;8.90;2.63;;;25.20;99.90;;;;;;4964730;28;20054;-91
2022/05/23 11:40:29;;;;;;;10.70;2.45;;;25.40;99.90;;;;;;4957074;28;20041;-89
2022/05/23 11:43:10;;;;;;;9.60;2.60;;;27.20;99.90;;;;;;4972392;28;20577;-92
2022/05/23 11:48:53;;;;;;;10.38;2.42;;;25.50;99.90;;;;;;4983059;28;20276;-92
2022/05/23 11:52:02;;;;;;;;;;;;;;;;;;;;;
2022/05/23 11:54:36;;;;;;;7.22;2.00;;;25.70;99.90;;;;;;4985949;28;20049;-92
2022/05/23 11:57:05;;;;;;;7.65;2.20;;;25.80;99.90;;;;;;4978517;28;20047;-87
2022/05/23 11:59:30;;;;;;;8.27;1.95;;;25.70;99.90;;;;;;4974787;28;20050;-92
2022/05/23 12:02:12;;;;;;;7.45;2.08;;;25.70;99.90;;;;;;4974850;28;20046;-91
2022/05/23 12:04:49;;;;;;;7.72;2.28;;;25.90;99.90;;;;;;4972724;28;20124;-92
2022/05/23 12:07:36;;;;;;;7.47;2.20;;;26.00;99.90;;;;;;4972078;28;20034;-91
2022/05/23 12:10:22;;;;;;;7.57;2.17;;;25.90;99.90;;;;;;4966927;28;20035;-90
2022/05/23 12:12:56;;;;;;;7.60;2.10;;;26.00;99.90;;;;;;4986733;28;20528;-91
2022/05/23 12:15:46;;;;;;;7.18;2.10;;;26.00;99.90;;;;;;4951958;28;20073;-90
2022/05/23 12:18:24;;;;;;;6.65;1.90;;;25.90;98.50;;;;;;4972703;28;20050;-88
2022/05/23 12:21:47;;;;;;;7.88;2.05;;;25.70;99.50;;;;;;5004649;28;20046;-91
2022/05/23 12:24:11;;;;;;;7.28;2.22;;;25.60;99.90;;;;;;4983499;28;20042;-90
2022/05/23 12:26:40;;;;;;;6.05;1.98;;;25.50;99.90;;;;;;4968318;28;20092;-90
2022/05/23 12:29:57;;;;;;;6.80;2.00;;;25.50;99.90;;;;;;4963391;28;20047;-92
2022/05/23 12:32:32;;;;;;;7.22;2.20;;;25.50;99.90;;;;;;4973021;28;20073;-92
2022/05/23 12:35:44;;;;;;;9.77;2.47;;;26.80;99.90;;;;;;4961507;28;20053;-90
2022/05/23 12:38:41;;;;;;;;;;;;;;;;;;;;;
2022/05/23 12:41:50;;;;;;;7.95;2.42;;;25.70;99.90;;;;;;4992866;28;20042;-89
2022/05/23 12:44:45;;;;;;;5.80;2.10;;;26.20;99.90;;;;;;4977181;28;20046;-89
2022/05/23 12:47:47;;;;;;;8.25;2.20;;;26.30;99.90;;;;;;4975483;28;20046;-91
2022/05/23 12:50:35;;;;;;;7.43;2.30;;;26.40;99.90;;;;;;4960227;28;20408;-87
2022/05/23 12:53:25;;;;;;;7.18;2.20;;;26.20;99.40;;;;;;4981455;28;20498;-89
2022/05/23 12:56:22;;;;;;;6.70;2.17;;;26.30;99.90;;;;;;4960023;28;20043;-89
2022/05/23 12:59:06;;;;;;;6.65;2.17;;;26.20;99.90;;;;;;4986157;28;20034;-87
2022/05/23 13:01:42;;;;;;;6.90;2.30;;;25.80;99.90;;;;;;4985314;28;20072;-91
2022/05/23 13:04:28;;;;;;;10.02;2.85;;;25.70;99.90;;;;;;4987010;28;20049;-90
2022/05/23 13:07:11;;;;;;;8.98;2.35;;;25.50;99.90;;;;;;4987416;28;20412;-91
2022/05/23 13:09:48;;;;;;;7.72;2.30;;;25.30;99.90;;;;;;4990409;28;20107;-90
2022/05/23 13:12:21;;;;;;;7.90;2.33;;;25.20;99.90;;;;;;4970283;28;20073;-90
2022/05/23 13:15:03;;;;;;;10.25;2.50;;;25.10;99.90;;;;;;4987929;28;20034;-88
2022/05/23 13:17:42;;;;;;;9.50;2.40;;;24.90;99.90;;;;;;4979561;28;20055;-91
2022/05/23 13:23:17;;;;;;;10.73;2.65;;;24.90;99.90;;;;;;4956137;28;20051;-91
2022/05/23 13:25:45;;;;;;;7.50;2.30;;;24.80;99.90;;;;;;4943230;28;20392;-93
2022/05/23 13:28:15;;;;;;;7.53;2.42;;;24.80;99.90;;;;;;4956031;28;20492;-95
2022/05/23 13:30:47;;;;;;;7.78;2.42;;;24.80;99.90;;;;;;4955238;28;20035;-89
2022/05/23 13:33:21;;;;;;;7.60;2.30;;;24.80;99.90;;;;;;4977059;28;20505;-90
2022/05/23 13:36:04;;;;;;;8.02;2.50;;;24.80;99.90;;;;;;4959408;28;20045;-92
2022/05/23 13:38:32;;;;;;;7.60;2.53;;;24.70;99.90;;;;;;4956516;28;20503;-88
2022/05/23 13:41:04;;;;;;;9.32;2.60;;;24.70;99.90;;;;;;4954258;28;20043;-90
2022/05/23 13:43:43;;;;;;;8.43;2.60;;;24.60;99.90;;;;;;4956378;28;20421;-89
2022/05/23 13:46:14;;;;;;;11.20;3.35;;;24.50;99.90;;;;;;4952150;28;20057;-89
2022/05/23 13:48:49;;;;;;;7.50;2.60;;;24.40;99.90;;;;;;4972599;28;20046;-89
2022/05/23 13:51:28;;;;;;;10.75;2.50;;;24.40;99.90;;;;;;4953090;28;20118;-89
2022/05/23 13:54:17;;;;;;;11.88;3.17;;;24.30;99.90;;;;;;4952110;28;20042;-88
2022/05/23 13:56:48;;;;;;;9.45;2.63;;;24.20;99.90;;;;;;4954964;28;20125;-88
2022/05/23 13:59:20;;;;;;;9.02;2.30;;;24.10;99.90;;;;;;4938953;28;20043;-89
2022/05/23 14:02:06;;;;;;;7.90;2.45;;;24.10;99.90;;;;;;4961350;28;20488;-90
2022/05/23 14:04:38;;;;;;;7.97;2.45;;;24.00;99.90;;;;;;4950904;28;20071;-88
2022/05/23 14:07:10;;;;;;;10.30;2.57;;;23.90;99.90;;;;;;4955386;28;20110;-88
2022/05/23 14:09:42;;;;;;;10.25;2.78;;;23.80;99.90;;;;;;4951015;28;20564;-89
2022/05/23 14:12:12;;;;;;;12.77;3.72;;;23.80;99.90;;;;;;4950821;28;20256;-89
2022/05/23 14:14:50;;;;;;;10.48;2.80;;;23.70;99.90;;;;;;4953274;28;20050;-88
2022/05/23 14:17:30;;;;;;;10.32;2.53;;;23.70;99.90;;;;;;4976287;28;20054;-90
2022/05/23 14:20:43;;;;;;;8.18;2.72;;;23.80;99.90;;;;;;4972789;28;20527;-89
2022/05/23 14:30:35;;;;;;;7.10;2.28;;;24.00;99.90;;;;;;4975249;28;20047;-93
2022/05/23 14:33:29;;;;;;;7.30;2.40;;;24.40;99.90;;;;;;4945991;28;20039;-88
2022/05/23 14:36:21;;;;;;;9.52;2.70;;;24.40;99.90;;;;;;4950922;28;20121;-87